Time;durP1;ratioP1;P1;durP2;ratioP2;P2;SDS_P1;SDS_P2;PMS_P1;PMS_P2;Temp;Humidity;BMP_temperature;BMP_pressure;BME280_temperature;BME280_humidity;BME280_pressure;Samples;Min_cycle;Max_cycle;Signal;HPM_P1;HPM_P2
2021/01/23 00:00:20;;;;;;;29.95;19.90;;;4.00;99.90;;;;;;5029519;28;20065;-68
2021/01/23 00:02:45;;;;;;;30.70;19.50;;;4.00;99.90;;;;;;5029405;28;20064;-68
2021/01/23 00:05:12;;;;;;;32.25;19.33;;;4.00;99.90;;;;;;5029454;28;20081;-68
2021/01/23 00:07:37;;;;;;;24.98;18.25;;;4.00;99.90;;;;;;5028789;28;20055;-70
2021/01/23 00:10:05;;;;;;;29.05;18.77;;;3.90;99.90;;;;;;5029453;28;20042;-67
2021/01/23 00:12:30;;;;;;;38.38;20.83;;;3.90;99.90;;;;;;5029133;28;20025;-68
2021/01/23 00:14:56;;;;;;;31.92;20.48;;;3.90;99.90;;;;;;5029172;28;20513;-68
2021/01/23 00:17:22;;;;;;;37.22;21.05;;;3.80;99.90;;;;;;5028967;28;20099;-68
2021/01/23 00:19:47;;;;;;;36.28;22.80;;;3.80;99.90;;;;;;5028987;28;20071;-68
2021/01/23 00:22:13;;;;;;;32.85;21.63;;;3.70;99.90;;;;;;5028676;28;20483;-68
2021/01/23 00:24:39;;;;;;;37.80;24.13;;;3.70;99.90;;;;;;5029120;28;20462;-67
2021/01/23 00:27:05;;;;;;;37.38;23.88;;;3.60;99.90;;;;;;5031795;28;20029;-68
2021/01/23 00:29:31;;;;;;;38.97;23.23;;;3.60;99.90;;;;;;5035532;28;20053;-68
2021/01/23 00:31:57;;;;;;;40.95;24.42;;;3.60;99.90;;;;;;5028678;28;20034;-69
2021/01/23 00:34:23;;;;;;;35.67;22.13;;;3.60;99.90;;;;;;5028999;28;20045;-68
2021/01/23 00:36:49;;;;;;;34.17;23.13;;;3.60;99.90;;;;;;5028505;28;20053;-69
2021/01/23 00:39:15;;;;;;;32.60;21.70;;;3.50;99.90;;;;;;5028652;28;20128;-69
2021/01/23 00:41:41;;;;;;;33.40;20.67;;;3.60;99.90;;;;;;5028467;28;20129;-68
2021/01/23 00:44:06;;;;;;;29.48;20.40;;;3.50;99.90;;;;;;5028798;28;20511;-68
2021/01/23 00:46:32;;;;;;;31.15;19.73;;;3.60;99.90;;;;;;5028942;28;20041;-69
2021/01/23 00:48:58;;;;;;;32.47;21.35;;;3.70;99.90;;;;;;5029057;28;20045;-68
2021/01/23 00:51:24;;;;;;;29.98;19.92;;;3.70;99.90;;;;;;5010575;28;20403;-68
2021/01/23 00:53:53;;;;;;;29.33;19.98;;;3.80;99.90;;;;;;5010601;28;20045;-68
2021/01/23 00:56:19;;;;;;;29.77;19.95;;;3.80;99.90;;;;;;5010384;28;20529;-67
2021/01/23 00:58:45;;;;;;;30.75;21.35;;;3.80;99.90;;;;;;5028512;28;20045;-68
2021/01/23 01:01:11;;;;;;;33.03;19.95;;;3.80;99.90;;;;;;5010520;28;20038;-67
2021/01/23 01:03:37;;;;;;;28.83;19.20;;;3.70;99.90;;;;;;5028552;28;20044;-67
2021/01/23 01:06:06;;;;;;;28.92;19.92;;;3.70;99.90;;;;;;5010587;28;20087;-67
2021/01/23 01:08:31;;;;;;;27.35;19.70;;;3.70;99.90;;;;;;5028052;28;20563;-68
2021/01/23 01:10:57;;;;;;;30.83;19.98;;;3.70;99.90;;;;;;5028042;28;20038;-68
2021/01/23 01:13:23;;;;;;;31.58;19.60;;;3.70;99.90;;;;;;5028151;28;20059;-68
2021/01/23 01:15:50;;;;;;;29.88;19.52;;;3.70;99.90;;;;;;5028042;28;20041;-67
2021/01/23 01:18:16;;;;;;;28.90;19.02;;;3.80;99.90;;;;;;5027474;28;20034;-68
2021/01/23 01:20:41;;;;;;;26.65;18.13;;;3.80;99.90;;;;;;5035366;28;20395;-68
2021/01/23 01:23:07;;;;;;;28.70;19.00;;;3.90;99.90;;;;;;5047858;28;20062;-68
2021/01/23 01:25:33;;;;;;;27.50;18.55;;;3.90;99.90;;;;;;5047928;28;20049;-70
2021/01/23 01:27:59;;;;;;;28.48;18.55;;;3.90;99.90;;;;;;5047256;28;20044;-68
2021/01/23 01:30:24;;;;;;;25.90;18.30;;;3.90;99.90;;;;;;5028135;28;20509;-68
2021/01/23 01:32:50;;;;;;;25.00;17.63;;;3.90;99.90;;;;;;5027952;28;20087;-66
2021/01/23 01:35:16;;;;;;;25.10;18.13;;;4.00;99.90;;;;;;5028055;28;20021;-67
2021/01/23 01:37:46;;;;;;;28.02;18.30;;;4.10;99.90;;;;;;5027875;28;20041;-68
2021/01/23 01:40:12;;;;;;;25.85;17.42;;;4.10;99.90;;;;;;5027864;28;20153;-68
2021/01/23 01:42:38;;;;;;;27.48;17.02;;;4.00;99.90;;;;;;5027240;28;20057;-68
2021/01/23 01:45:05;;;;;;;25.17;17.52;;;4.10;99.90;;;;;;5027925;28;20053;-67
2021/01/23 01:47:36;;;;;;;27.20;18.05;;;4.20;99.90;;;;;;5027844;28;20029;-67
2021/01/23 01:50:03;;;;;;;24.70;16.85;;;4.20;99.90;;;;;;5027612;28;20073;-69
2021/01/23 01:52:29;;;;;;;23.75;16.55;;;4.20;99.90;;;;;;5027692;28;20033;-67
2021/01/23 01:54:54;;;;;;;23.90;17.60;;;4.30;99.90;;;;;;5027684;28;20514;-67
2021/01/23 01:57:21;;;;;;;21.20;16.40;;;4.30;99.90;;;;;;5027609;28;20038;-68
2021/01/23 01:59:48;;;;;;;24.05;16.95;;;4.30;99.90;;;;;;5027878;28;20046;-70
2021/01/23 02:02:51;;;;;;;25.33;17.63;;;4.40;99.90;;;;;;5027773;28;20426;-65
2021/01/23 02:05:39;;;;;;;23.52;16.52;;;4.40;99.90;;;;;;5027818;28;20115;-68
2021/01/23 02:08:27;;;;;;;25.40;15.82;;;4.40;99.90;;;;;;5028092;28;20049;-67
2021/01/23 02:11:22;;;;;;;22.50;15.40;;;4.40;99.90;;;;;;5027806;28;20578;-67
2021/01/23 02:13:53;;;;;;;24.33;17.40;;;4.40;99.90;;;;;;5027516;28;20037;-68
2021/01/23 02:16:29;;;;;;;26.02;17.27;;;4.40;99.90;;;;;;5027627;28;20128;-67
2021/01/23 02:19:20;;;;;;;23.83;16.42;;;4.40;99.90;;;;;;5027496;28;20053;-67
2021/01/23 02:22:09;;;;;;;27.95;16.48;;;4.30;99.90;;;;;;5042602;28;20060;-66
2021/01/23 02:24:35;;;;;;;24.75;16.15;;;4.40;99.90;;;;;;5047470;28;20055;-66
2021/01/23 02:27:07;;;;;;;21.20;17.13;;;4.40;99.90;;;;;;5047073;28;20040;-67
2021/01/23 02:30:01;;;;;;;22.33;16.50;;;4.40;99.90;;;;;;5035517;28;20053;-67
2021/01/23 02:32:30;;;;;;;19.65;15.60;;;4.30;99.90;;;;;;5031133;28;20065;-67
2021/01/23 02:34:58;;;;;;;21.92;16.13;;;4.30;99.90;;;;;;5030937;28;20031;-67
2021/01/23 02:37:25;;;;;;;26.35;17.45;;;4.30;99.90;;;;;;5030706;28;20033;-67
2021/01/23 02:39:52;;;;;;;22.75;16.60;;;4.30;99.90;;;;;;5030974;28;20037;-67
2021/01/23 02:42:18;;;;;;;23.60;17.00;;;4.20;99.90;;;;;;5031015;28;20140;-67
2021/01/23 02:44:44;;;;;;;20.10;15.93;;;4.30;99.90;;;;;;5030864;28;20136;-66
2021/01/23 02:47:10;;;;;;;26.20;17.27;;;4.40;99.90;;;;;;5030928;28;20514;-66
2021/01/23 02:49:36;;;;;;;23.05;17.33;;;4.50;99.90;;;;;;5030795;28;20087;-67
2021/01/23 02:52:10;;;;;;;21.17;17.10;;;4.60;99.90;;;;;;5030731;28;20402;-67
2021/01/23 02:54:49;;;;;;;22.55;16.35;;;4.60;99.90;;;;;;5030710;28;20037;-67
2021/01/23 02:57:17;;;;;;;26.20;15.77;;;4.60;99.90;;;;;;5030645;28;20056;-67
2021/01/23 02:59:46;;;;;;;28.10;16.77;;;4.50;99.90;;;;;;5030540;28;20033;-67
2021/01/23 03:02:14;;;;;;;22.48;16.60;;;4.60;99.90;;;;;;5030314;28;20535;-67
2021/01/23 03:04:42;;;;;;;25.23;17.50;;;4.60;99.90;;;;;;5030181;28;20042;-67
2021/01/23 03:07:09;;;;;;;25.77;17.20;;;4.60;99.90;;;;;;5030749;28;20073;-67
2021/01/23 03:09:35;;;;;;;22.08;16.42;;;4.50;99.90;;;;;;5030546;28;20060;-68
2021/01/23 03:12:01;;;;;;;26.88;17.55;;;4.50;99.90;;;;;;5030499;28;20037;-67
2021/01/23 03:14:27;;;;;;;25.50;16.88;;;4.40;99.90;;;;;;5030284;28;20049;-66
2021/01/23 03:16:54;;;;;;;31.17;17.08;;;4.30;99.90;;;;;;5030136;28;20541;-66
2021/01/23 03:19:21;;;;;;;22.25;16.90;;;4.30;99.90;;;;;;5030071;28;20038;-66
2021/01/23 03:21:49;;;;;;;21.20;15.75;;;4.20;99.90;;;;;;5046391;28;20045;-67
2021/01/23 03:24:15;;;;;;;25.83;16.42;;;4.20;99.90;;;;;;5050050;28;20056;-67
2021/01/23 03:26:42;;;;;;;25.20;16.90;;;4.20;99.90;;;;;;5050125;28;20043;-66
2021/01/23 03:29:08;;;;;;;26.98;17.33;;;4.30;99.90;;;;;;5040434;28;20095;-68
2021/01/23 03:31:34;;;;;;;23.75;17.75;;;4.40;99.90;;;;;;5030138;28;20065;-67
2021/01/23 03:34:00;;;;;;;24.23;17.33;;;4.30;99.90;;;;;;5030069;28;20355;-67
2021/01/23 03:36:26;;;;;;;20.75;17.13;;;4.40;99.90;;;;;;5029816;28;20072;-66
2021/01/23 03:38:52;;;;;;;24.33;17.25;;;4.50;99.90;;;;;;5012248;28;20033;-67
2021/01/23 03:41:19;;;;;;;24.15;17.20;;;4.60;99.90;;;;;;5028973;28;20044;-66
2021/01/23 03:43:44;;;;;;;23.70;15.73;;;4.60;99.90;;;;;;5029748;28;20096;-66
2021/01/23 03:46:10;;;;;;;24.73;16.15;;;4.60;99.90;;;;;;5029532;28;20462;-67
2021/01/23 03:48:36;;;;;;;20.90;15.95;;;4.60;99.90;;;;;;5030107;28;20481;-67
2021/01/23 03:51:03;;;;;;;26.63;16.25;;;4.70;99.90;;;;;;5029567;28;20491;-67
2021/01/23 03:53:29;;;;;;;25.55;16.38;;;4.70;99.90;;;;;;5029453;28;20395;-67
2021/01/23 03:55:55;;;;;;;26.38;16.10;;;4.60;99.90;;;;;;5029054;28;20104;-65
2021/01/23 03:58:20;;;;;;;22.52;16.15;;;4.60;99.90;;;;;;5029576;28;20038;-67
2021/01/23 04:00:46;;;;;;;22.17;15.75;;;4.50;99.90;;;;;;5029387;28;20072;-67
2021/01/23 04:03:13;;;;;;;20.77;14.93;;;4.40;99.90;;;;;;5029625;28;20034;-66
2021/01/23 04:05:39;;;;;;;19.70;14.60;;;4.40;99.90;;;;;;5029403;28;20499;-65
2021/01/23 04:08:06;;;;;;;23.52;16.13;;;4.30;99.90;;;;;;5029805;28;20095;-67
2021/01/23 04:10:32;;;;;;;24.20;16.13;;;4.30;99.90;;;;;;5029229;28;20045;-66
2021/01/23 04:12:57;;;;;;;21.75;15.95;;;4.20;99.90;;;;;;5029174;28;20044;-66
2021/01/23 04:15:23;;;;;;;20.02;15.18;;;4.20;99.90;;;;;;5028890;28;20045;-67
2021/01/23 04:17:50;;;;;;;21.50;15.77;;;4.20;99.90;;;;;;5029231;28;20065;-67
2021/01/23 04:20:16;;;;;;;24.20;16.63;;;4.30;99.90;;;;;;5032751;28;20041;-67
2021/01/23 04:22:42;;;;;;;20.13;16.02;;;4.30;99.90;;;;;;5048793;28;20115;-66
2021/01/23 04:25:08;;;;;;;28.63;17.33;;;4.30;99.90;;;;;;5048740;28;20080;-68
2021/01/23 04:27:34;;;;;;;24.00;16.67;;;4.40;99.90;;;;;;5048811;28;20041;-66
2021/01/23 04:30:01;;;;;;;24.85;16.65;;;4.60;99.90;;;;;;5031435;28;20049;-66
2021/01/23 04:32:28;;;;;;;18.90;15.02;;;4.70;99.90;;;;;;5028871;28;20459;-66
2021/01/23 04:34:53;;;;;;;23.83;15.23;;;4.80;99.90;;;;;;5028725;28;20045;-66
2021/01/23 04:37:19;;;;;;;23.48;16.52;;;5.00;99.90;;;;;;5028684;28;20037;-67
2021/01/23 04:39:45;;;;;;;20.52;14.48;;;5.10;99.90;;;;;;5029912;28;20124;-66
2021/01/23 04:42:11;;;;;;;23.38;15.00;;;5.20;99.90;;;;;;5028704;28;20128;-66
2021/01/23 04:44:37;;;;;;;20.88;14.82;;;5.20;99.90;;;;;;5029037;28;20398;-66
2021/01/23 04:47:03;;;;;;;26.10;15.27;;;5.30;99.90;;;;;;5028957;28;20030;-66
2021/01/23 04:49:31;;;;;;;17.77;14.40;;;5.40;99.90;;;;;;5028309;28;20624;-67
2021/01/23 04:52:02;;;;;;;22.23;14.77;;;5.40;99.90;;;;;;5028611;28;20121;-66
2021/01/23 04:54:31;;;;;;;19.98;13.60;;;5.30;99.90;;;;;;5027818;28;20113;-66
2021/01/23 04:56:57;;;;;;;15.95;13.18;;;5.50;99.90;;;;;;5028502;28;20256;-67
2021/01/23 04:59:23;;;;;;;17.40;13.20;;;5.50;99.90;;;;;;5028446;28;20392;-66
2021/01/23 05:02:14;;;;;;;16.60;13.27;;;5.50;99.90;;;;;;5028439;28;20049;-67
2021/01/23 05:04:52;;;;;;;18.92;12.70;;;5.50;99.90;;;;;;5028271;28;20067;-67
2021/01/23 05:07:34;;;;;;;16.88;13.00;;;5.50;99.90;;;;;;5028311;28;20037;-66
2021/01/23 05:10:23;;;;;;;17.80;12.00;;;5.50;99.90;;;;;;5028234;28;20108;-66
2021/01/23 05:12:54;;;;;;;16.00;12.30;;;5.50;99.90;;;;;;5028123;28;20056;-67
2021/01/23 05:15:24;;;;;;;17.33;13.25;;;5.50;99.90;;;;;;5028030;28;20116;-66
2021/01/23 05:17:55;;;;;;;15.10;12.52;;;5.50;99.90;;;;;;5028064;28;20030;-67
2021/01/23 05:20:51;;;;;;;19.52;12.45;;;5.50;99.90;;;;;;5032441;28;20148;-67
2021/01/23 05:23:28;;;;;;;18.67;12.13;;;5.50;99.90;;;;;;5047955;28;20149;-66
2021/01/23 05:26:01;;;;;;;17.45;11.82;;;5.50;99.90;;;;;;5047795;28;20179;-67
2021/01/23 05:28:32;;;;;;;16.90;11.85;;;5.70;99.90;;;;;;5040031;28;20048;-66
2021/01/23 05:30:59;;;;;;;16.98;11.25;;;5.70;99.90;;;;;;5028040;28;20041;-67
2021/01/23 05:33:26;;;;;;;15.82;11.45;;;5.70;99.90;;;;;;5027732;28;20107;-67
2021/01/23 05:35:59;;;;;;;14.73;11.27;;;5.60;99.90;;;;;;5027828;28;20075;-66
2021/01/23 05:38:33;;;;;;;17.02;11.43;;;5.70;99.90;;;;;;5027763;28;20045;-67
2021/01/23 05:41:08;;;;;;;15.57;11.57;;;5.70;99.90;;;;;;5027898;28;20048;-67
2021/01/23 05:43:34;;;;;;;17.50;9.95;;;5.60;99.90;;;;;;5027788;28;20038;-67
2021/01/23 05:46:10;;;;;;;14.63;10.65;;;5.60;99.90;;;;;;5027657;28;20048;-68
2021/01/23 05:48:40;;;;;;;14.63;10.55;;;5.60;99.90;;;;;;5027841;28;20080;-66
2021/01/23 05:51:06;;;;;;;13.57;9.63;;;5.60;99.90;;;;;;5028210;28;20037;-67
2021/01/23 05:53:33;;;;;;;21.23;11.45;;;5.50;99.90;;;;;;5027874;28;20033;-67
2021/01/23 05:56:01;;;;;;;17.13;9.27;;;5.40;99.90;;;;;;5027761;28;20056;-66
2021/01/23 05:58:29;;;;;;;13.82;9.88;;;5.40;99.90;;;;;;5027744;28;20231;-66
2021/01/23 06:00:56;;;;;;;13.02;9.43;;;5.40;99.90;;;;;;5028013;28;20048;-67
2021/01/23 06:03:23;;;;;;;13.18;9.98;;;5.50;99.90;;;;;;5027629;28;20030;-66
2021/01/23 06:05:58;;;;;;;14.52;9.63;;;5.50;99.90;;;;;;5030847;28;20713;-66
2021/01/23 06:08:40;;;;;;;12.25;9.13;;;5.60;99.90;;;;;;5031410;28;20125;-67
2021/01/23 06:11:31;;;;;;;12.52;8.48;;;5.70;99.90;;;;;;5031813;28;20128;-66
2021/01/23 06:13:57;;;;;;;12.27;8.18;;;5.80;99.90;;;;;;5019949;28;20374;-66
2021/01/23 06:16:32;;;;;;;9.95;7.55;;;5.90;99.90;;;;;;5031298;28;20036;-66
2021/01/23 06:19:27;;;;;;;14.38;8.27;;;6.10;99.90;;;;;;5031206;28;20042;-66
2021/01/23 06:21:53;;;;;;;10.65;7.57;;;6.10;99.90;;;;;;5048134;28;20519;-66
2021/01/23 06:24:44;;;;;;;11.27;7.18;;;6.10;99.90;;;;;;5051214;28;20056;-66
2021/01/23 06:27:09;;;;;;;10.70;6.88;;;6.20;99.90;;;;;;5051051;28;20083;-66
2021/01/23 06:29:37;;;;;;;9.02;7.38;;;6.30;99.90;;;;;;5036641;28;20042;-66
2021/01/23 06:32:12;;;;;;;8.75;7.45;;;6.30;99.90;;;;;;5031413;28;20037;-66
2021/01/23 06:34:53;;;;;;;11.45;7.47;;;6.30;99.90;;;;;;5030874;28;20046;-67
2021/01/23 06:37:29;;;;;;;9.10;7.40;;;6.40;99.90;;;;;;5031261;28;20176;-68
2021/01/23 06:40:04;;;;;;;9.38;6.63;;;6.60;99.90;;;;;;5030688;28;20107;-67
2021/01/23 06:42:40;;;;;;;7.18;6.35;;;6.80;99.90;;;;;;5031101;28;20045;-66
2021/01/23 06:45:23;;;;;;;8.45;6.40;;;6.80;99.90;;;;;;5030866;28;20196;-67
2021/01/23 06:47:50;;;;;;;;;;;6.90;99.90;;;;;;5031290;28;20049;-67
2021/01/23 06:50:39;;;;;;;7.13;5.78;;;7.00;99.90;;;;;;5030718;28;19916;-67
2021/01/23 06:53:27;;;;;;;5.80;5.07;;;7.20;99.90;;;;;;5030962;28;20069;-67
2021/01/23 06:55:54;;;;;;;7.90;5.43;;;7.40;99.90;;;;;;5030329;28;20037;-67
2021/01/23 06:58:21;;;;;;;10.90;4.65;;;7.50;99.90;;;;;;5030531;28;20050;-67
2021/01/23 07:00:53;;;;;;;6.38;5.03;;;7.60;99.90;;;;;;5030412;28;20041;-67
2021/01/23 07:03:20;;;;;;;6.10;5.00;;;7.70;99.90;;;;;;5030480;28;20059;-67
2021/01/23 07:05:51;;;;;;;8.27;4.68;;;7.80;99.90;;;;;;5030259;28;20041;-66
2021/01/23 07:08:25;;;;;;;6.95;4.25;;;7.70;99.90;;;;;;5030508;28;20091;-66
2021/01/23 07:11:06;;;;;;;7.82;4.20;;;7.80;99.90;;;;;;5030261;28;20045;-68
2021/01/23 07:13:32;;;;;;;8.80;3.90;;;7.80;99.90;;;;;;5030310;28;20049;-66
2021/01/23 07:15:58;;;;;;;7.18;4.38;;;7.80;99.90;;;;;;5029148;28;20041;-68
2021/01/23 07:18:26;;;;;;;4.75;3.65;;;7.90;99.90;;;;;;5031687;28;20033;-69
2021/01/23 07:20:52;;;;;;;4.53;4.15;;;8.00;99.90;;;;;;5025160;28;20077;-67
2021/01/23 07:23:19;;;;;;;5.97;4.38;;;7.80;99.90;;;;;;5030379;28;20083;-59
2021/01/23 07:25:45;;;;;;;6.65;4.30;;;7.80;99.90;;;;;;5039975;28;20045;-52
2021/01/23 07:28:10;;;;;;;7.80;4.32;;;7.80;99.90;;;;;;5030531;28;20124;-54
2021/01/23 07:30:36;;;;;;;6.10;4.45;;;7.70;99.90;;;;;;5031724;28;20581;-52
2021/01/23 07:33:03;;;;;;;6.35;3.78;;;7.80;99.90;;;;;;5014754;28;20033;-57
2021/01/23 07:35:39;;;;;;;6.50;3.85;;;7.70;99.90;;;;;;5029578;28;20040;-52
2021/01/23 07:38:06;;;;;;;5.13;4.05;;;7.70;99.90;;;;;;5033553;28;20060;-52
2021/01/23 07:40:38;;;;;;;7.45;3.90;;;7.80;99.90;;;;;;5030164;28;20033;-53
2021/01/23 07:43:05;;;;;;;7.32;4.85;;;7.70;99.90;;;;;;5011151;28;20038;-52
2021/01/23 07:45:33;;;;;;;4.63;4.07;;;7.70;99.90;;;;;;5010262;28;20054;-54
2021/01/23 07:48:04;;;;;;;6.95;4.22;;;7.70;99.90;;;;;;5030106;28;20041;-54
2021/01/23 07:50:45;;;;;;;5.47;4.38;;;7.70;99.90;;;;;;5024866;28;20058;-52
2021/01/23 07:53:19;;;;;;;8.18;4.38;;;7.70;99.90;;;;;;5024441;28;20037;-51
2021/01/23 07:55:45;;;;;;;7.95;4.07;;;7.70;99.90;;;;;;5037048;28;20040;-51
2021/01/23 07:58:12;;;;;;;6.78;4.40;;;7.70;99.90;;;;;;5027550;28;20033;-51
2021/01/23 08:00:39;;;;;;;5.13;3.80;;;7.90;99.90;;;;;;5019988;28;20447;-52
2021/01/23 08:03:05;;;;;;;5.97;4.82;;;7.90;99.90;;;;;;5010479;28;20118;-51
2021/01/23 08:05:44;;;;;;;4.70;3.75;;;8.00;99.90;;;;;;5009829;28;20062;-51
2021/01/23 08:08:29;;;;;;;7.63;4.22;;;8.00;99.90;;;;;;5010004;28;20610;-51
2021/01/23 08:10:56;;;;;;;9.18;4.55;;;8.20;99.90;;;;;;5009796;28;20034;-51
2021/01/23 08:13:27;;;;;;;7.78;4.00;;;8.10;99.90;;;;;;5010111;28;20100;-52
2021/01/23 08:16:14;;;;;;;8.57;3.50;;;8.10;99.90;;;;;;5016301;28;20041;-52
2021/01/23 08:18:40;;;;;;;9.35;4.22;;;8.00;99.90;;;;;;5028759;28;20045;-51
2021/01/23 08:21:19;;;;;;;6.93;4.35;;;8.00;99.90;;;;;;5025358;28;20545;-52
2021/01/23 08:23:46;;;;;;;6.45;4.05;;;7.90;99.90;;;;;;5048168;28;20049;-53
2021/01/23 08:26:12;;;;;;;5.28;4.80;;;7.80;99.90;;;;;;5048955;28;20036;-51
2021/01/23 08:28:42;;;;;;;8.90;4.32;;;7.80;99.90;;;;;;5043398;28;20033;-52
2021/01/23 08:31:20;;;;;;;6.07;4.38;;;7.80;99.90;;;;;;5034742;28;20509;-52
2021/01/23 08:33:54;;;;;;;8.15;4.38;;;7.90;99.90;;;;;;5045195;28;20037;-52
2021/01/23 08:36:29;;;;;;;8.35;5.10;;;7.90;99.90;;;;;;5048642;28;20044;-53
2021/01/23 08:39:04;;;;;;;4.80;4.38;;;8.00;99.90;;;;;;5048466;28;20044;-52
2021/01/23 08:41:31;;;;;;;7.13;4.32;;;8.10;99.90;;;;;;5048921;28;20045;-51
2021/01/23 08:43:57;;;;;;;6.28;4.25;;;8.20;99.90;;;;;;5036748;28;20116;-52
2021/01/23 08:46:23;;;;;;;4.82;4.28;;;8.30;99.90;;;;;;5029051;28;20501;-51
2021/01/23 08:48:50;;;;;;;6.30;3.72;;;8.60;99.90;;;;;;5028964;28;20037;-52
2021/01/23 08:51:16;;;;;;;4.68;3.78;;;9.00;99.90;;;;;;5028647;28;20541;-63
2021/01/23 08:53:42;;;;;;;3.90;3.25;;;9.40;99.90;;;;;;5028905;28;20128;-64
2021/01/23 08:56:11;;;;;;;6.00;3.17;;;9.70;99.90;;;;;;5026293;28;20164;-64
2021/01/23 08:58:37;;;;;;;6.25;3.75;;;9.90;99.90;;;;;;5028914;28;20025;-64
2021/01/23 09:01:03;;;;;;;3.97;3.40;;;10.00;99.90;;;;;;5028776;28;20123;-63
2021/01/23 09:03:29;;;;;;;5.90;3.67;;;10.20;99.90;;;;;;5028610;28;20052;-64
2021/01/23 09:05:54;;;;;;;6.50;3.92;;;10.10;99.90;;;;;;5028311;28;20041;-64
2021/01/23 09:08:20;;;;;;;7.53;4.32;;;9.80;99.90;;;;;;5028757;28;20041;-64
2021/01/23 09:10:46;;;;;;;4.75;3.15;;;9.70;99.90;;;;;;5028807;28;20136;-64
2021/01/23 09:13:12;;;;;;;10.98;5.45;;;9.60;99.90;;;;;;5028707;28;20116;-64
2021/01/23 09:15:38;;;;;;;4.25;3.08;;;9.50;99.90;;;;;;5034274;28;20037;-64
2021/01/23 09:18:05;;;;;;;8.95;3.63;;;9.50;99.90;;;;;;5043280;28;20040;-64
2021/01/23 09:20:31;;;;;;;7.00;3.25;;;9.40;99.90;;;;;;5041423;28;20828;-64
2021/01/23 09:22:57;;;;;;;5.10;3.10;;;9.40;99.90;;;;;;5027767;28;20044;-64
2021/01/23 09:25:22;;;;;;;4.75;2.83;;;9.40;99.90;;;;;;5022650;28;20041;-64
2021/01/23 09:27:48;;;;;;;5.63;3.33;;;9.30;99.90;;;;;;5030209;28;20092;-64
2021/01/23 09:30:14;;;;;;;3.95;2.95;;;9.40;99.90;;;;;;5009515;28;20470;-63
2021/01/23 09:32:42;;;;;;;5.43;3.35;;;9.40;99.90;;;;;;5020777;28;20106;-63
2021/01/23 09:35:08;;;;;;;4.90;3.20;;;9.50;99.90;;;;;;5010231;28;20128;-63
2021/01/23 09:37:34;;;;;;;4.57;3.38;;;9.60;99.90;;;;;;5020741;28;20065;-64
2021/01/23 09:40:01;;;;;;;7.13;2.95;;;9.80;99.90;;;;;;5027626;28;20123;-63
2021/01/23 09:42:27;;;;;;;5.38;3.53;;;9.80;99.90;;;;;;5028235;28;20033;-64
2021/01/23 09:44:53;;;;;;;7.10;3.15;;;9.90;99.90;;;;;;5028152;28;20052;-64
2021/01/23 09:47:18;;;;;;;5.63;2.80;;;9.90;99.90;;;;;;5027979;28;20025;-64
2021/01/23 09:49:44;;;;;;;7.60;3.58;;;9.90;99.90;;;;;;5009161;28;20048;-64
2021/01/23 09:52:10;;;;;;;4.07;3.67;;;9.80;99.90;;;;;;5008658;28;20044;-65
2021/01/23 09:54:36;;;;;;;5.57;3.83;;;9.80;99.90;;;;;;5008864;28;20038;-65
2021/01/23 09:57:02;;;;;;;6.00;3.20;;;9.80;99.90;;;;;;5020223;28;20026;-65
2021/01/23 09:59:28;;;;;;;3.35;2.78;;;9.80;99.90;;;;;;5023383;28;20421;-65
2021/01/23 10:01:54;;;;;;;5.30;3.55;;;9.70;99.90;;;;;;5008879;28;20038;-65
2021/01/23 10:04:21;;;;;;;7.05;3.85;;;9.50;99.90;;;;;;5008178;28;20077;-65
2021/01/23 10:06:46;;;;;;;7.25;2.90;;;9.50;99.90;;;;;;5008252;28;20065;-65
2021/01/23 10:09:12;;;;;;;4.38;3.17;;;9.40;99.90;;;;;;5007406;28;20058;-65
2021/01/23 10:11:38;;;;;;;9.88;3.92;;;9.40;99.90;;;;;;5008372;28;20116;-65
2021/01/23 10:14:04;;;;;;;3.45;3.05;;;9.30;99.90;;;;;;5007836;28;20045;-65
2021/01/23 10:16:29;;;;;;;5.47;3.88;;;9.40;99.90;;;;;;5008481;28;20038;-65
2021/01/23 10:18:55;;;;;;;5.25;2.92;;;9.40;99.90;;;;;;5007603;28;20068;-65
2021/01/23 10:21:21;;;;;;;3.15;2.85;;;9.40;99.90;;;;;;5016563;28;20053;-65
2021/01/23 10:23:47;;;;;;;6.22;3.38;;;9.40;99.90;;;;;;5027770;28;20414;-65
2021/01/23 10:26:12;;;;;;;6.63;3.40;;;9.40;99.90;;;;;;5028071;28;20522;-65
2021/01/23 10:28:38;;;;;;;6.95;3.05;;;9.40;99.90;;;;;;5037598;28;20037;-64
2021/01/23 10:31:04;;;;;;;5.32;2.88;;;9.50;99.90;;;;;;5028016;28;20095;-64
2021/01/23 10:33:29;;;;;;;5.30;3.15;;;9.50;99.90;;;;;;5042765;28;20576;-65
2021/01/23 10:35:57;;;;;;;3.63;2.92;;;9.40;99.90;;;;;;5027779;28;20508;-64
2021/01/23 10:38:23;;;;;;;11.43;3.42;;;9.40;99.90;;;;;;5027600;28;20061;-65
2021/01/23 10:40:48;;;;;;;4.13;3.17;;;9.30;99.90;;;;;;5027747;28;20057;-64
2021/01/23 10:43:14;;;;;;;5.13;2.85;;;9.30;99.90;;;;;;5027370;28;20524;-65
2021/01/23 10:45:40;;;;;;;6.90;3.40;;;9.30;99.90;;;;;;5039201;28;20056;-64
2021/01/23 10:48:08;;;;;;;5.05;3.03;;;9.20;99.90;;;;;;5034236;28;20083;-64
2021/01/23 10:50:34;;;;;;;8.05;4.43;;;9.30;99.90;;;;;;5047426;28;20413;-63
2021/01/23 10:53:00;;;;;;;11.25;3.35;;;9.40;99.90;;;;;;5050097;28;20124;-64
2021/01/23 10:55:26;;;;;;;6.97;3.70;;;9.50;99.90;;;;;;5035824;28;20120;-65
2021/01/23 10:57:52;;;;;;;6.18;3.33;;;9.60;99.90;;;;;;5036052;28;20116;-64
2021/01/23 11:00:18;;;;;;;10.27;3.67;;;9.70;99.40;;;;;;5030767;28;20040;-62
2021/01/23 11:02:44;;;;;;;14.73;3.42;;;9.80;99.30;;;;;;5030158;28;20401;-64
2021/01/23 11:05:10;;;;;;;3.92;3.47;;;10.00;98.10;;;;;;5030190;28;20045;-63
2021/01/23 11:07:36;;;;;;;5.13;3.10;;;10.00;98.20;;;;;;5030533;28;20049;-63
2021/01/23 11:10:03;;;;;;;3.97;3.20;;;10.10;98.00;;;;;;5039185;28;20036;-63
2021/01/23 11:12:29;;;;;;;6.82;2.88;;;10.10;97.70;;;;;;5033583;28;20053;-61
2021/01/23 11:14:56;;;;;;;7.80;3.25;;;10.10;96.70;;;;;;5028791;28;20522;-62
2021/01/23 11:17:22;;;;;;;9.60;3.45;;;10.20;96.70;;;;;;5028997;28;20455;-62
2021/01/23 11:19:48;;;;;;;5.85;3.65;;;10.10;96.80;;;;;;5030142;28;20076;-62
2021/01/23 11:22:13;;;;;;;11.40;4.25;;;10.20;97.00;;;;;;5029698;28;20053;-62
2021/01/23 11:24:42;;;;;;;6.25;3.72;;;10.10;96.80;;;;;;5030087;28;20041;-63
2021/01/23 11:27:08;;;;;;;7.32;4.32;;;10.10;97.00;;;;;;5030011;28;20043;-62
2021/01/23 11:29:34;;;;;;;5.63;3.80;;;10.00;97.90;;;;;;5030483;28;20124;-63
2021/01/23 11:32:00;;;;;;;13.93;3.85;;;10.00;97.80;;;;;;5030162;28;20065;-63
2021/01/23 11:34:26;;;;;;;6.25;3.35;;;10.00;97.60;;;;;;5030139;28;20064;-62
2021/01/23 11:36:52;;;;;;;9.13;4.45;;;9.90;98.20;;;;;;5029794;28;20041;-63
2021/01/23 11:39:17;;;;;;;8.90;4.25;;;9.80;98.10;;;;;;5030186;28;20136;-63
2021/01/23 11:41:44;;;;;;;7.05;4.32;;;9.80;98.40;;;;;;5030129;28;20160;-63
2021/01/23 11:44:10;;;;;;;7.53;3.63;;;9.80;99.10;;;;;;5030106;28;20049;-62
2021/01/23 11:46:36;;;;;;;6.30;3.88;;;9.70;98.40;;;;;;5030429;28;20037;-63
2021/01/23 11:49:03;;;;;;;11.77;4.22;;;9.70;98.80;;;;;;5030311;28;20420;-62
2021/01/23 11:51:29;;;;;;;7.22;3.30;;;9.70;98.70;;;;;;5029730;28;20040;-62
2021/01/23 11:53:54;;;;;;;5.82;3.55;;;9.70;98.90;;;;;;5029804;28;20033;-63
2021/01/23 11:56:20;;;;;;;7.47;3.20;;;9.70;99.40;;;;;;5030383;28;20096;-64
2021/01/23 11:58:47;;;;;;;4.55;3.63;;;9.70;99.40;;;;;;5029770;28;20026;-63
2021/01/23 12:01:12;;;;;;;7.57;3.53;;;9.80;99.20;;;;;;5029835;28;20057;-63
2021/01/23 12:03:38;;;;;;;7.20;3.58;;;9.80;98.80;;;;;;5048976;28;20029;-64
2021/01/23 12:06:04;;;;;;;3.50;2.90;;;9.80;99.00;;;;;;5050006;28;20051;-62
2021/01/23 12:08:30;;;;;;;5.88;3.88;;;9.80;99.10;;;;;;5049589;28;20033;-62
2021/01/23 12:10:56;;;;;;;6.97;3.13;;;9.70;99.00;;;;;;5049691;28;20040;-62
2021/01/23 12:13:22;;;;;;;8.00;3.60;;;9.80;99.50;;;;;;5049356;28;20170;-63
2021/01/23 12:15:48;;;;;;;4.35;2.97;;;9.70;99.10;;;;;;5049294;28;20116;-62
2021/01/23 12:18:13;;;;;;;9.43;3.30;;;9.80;99.00;;;;;;5049313;28;20719;-63
2021/01/23 12:20:39;;;;;;;6.45;3.33;;;9.80;99.40;;;;;;5049364;28;20047;-62
2021/01/23 12:23:05;;;;;;;6.18;3.53;;;9.80;98.70;;;;;;5049499;28;20052;-63
2021/01/23 12:25:30;;;;;;;8.82;3.67;;;9.80;99.50;;;;;;5049144;28;20148;-62
2021/01/23 12:27:56;;;;;;;5.53;3.03;;;9.80;99.10;;;;;;5042282;28;20030;-63
2021/01/23 12:30:22;;;;;;;5.50;3.05;;;9.80;98.80;;;;;;5029302;28;20083;-62
2021/01/23 12:32:49;;;;;;;12.10;3.65;;;9.90;98.60;;;;;;5027957;28;20073;-63
2021/01/23 12:35:15;;;;;;;18.80;4.05;;;9.90;98.00;;;;;;5039757;28;20505;-63
2021/01/23 12:37:41;;;;;;;5.53;3.05;;;9.90;98.10;;;;;;5038771;28;21154;-63
2021/01/23 12:40:08;;;;;;;5.47;2.63;;;9.90;98.30;;;;;;5042810;28;20041;-64
2021/01/23 12:42:35;;;;;;;6.25;2.50;;;9.90;98.20;;;;;;5049123;28;20715;-64
2021/01/23 12:45:01;;;;;;;6.50;2.95;;;9.90;98.10;;;;;;5048666;28;20053;-64
2021/01/23 12:47:27;;;;;;;4.25;2.92;;;9.90;97.90;;;;;;5048863;28;20036;-64
2021/01/23 12:49:54;;;;;;;4.20;2.33;;;10.00;97.80;;;;;;5048842;28;20048;-62
2021/01/23 12:52:19;;;;;;;3.05;2.22;;;10.00;97.70;;;;;;5041207;28;20056;-62